Newton Center, Massachusetts
Current Conditions -  °F | °C
As of 9:53 AM on Thursday 23 Oct 2014 (Local Time) from KOWD Reporting Station
Overcast Overcast  
Wind Chill: 52°   Ceiling: 1400
Heat Index: 52°   Visibility: 10mi
Dew Point: 49°   Wind: 15mph
Humidity: 89%   Direction: 360°N
Pressure: 29.62"   Gusts: 25mph
Location:  42.32°N, 71.19°W
Report Text: KOWD 231353Z 36013G22KT 10SM OVC014 11/09 A2962 RMK AO2 PK WND 36026/1325 RAE37 SLP030 P0004 T01110094
Loading
Personal Weather Stations






























Interactive Weather Map
Tropical Storm Tracking
New forecast layout! Learn more

10-Day Weather Forecast

Advertisements
Track Severe Weather on mobile